sensor_id;sensor_type;location;lat;lon;timestamp;P1;durP1;ratioP1;P2;durP2;ratioP2
73697;SDS011;62004;42.566;23.164;2022-08-21T00:01:10;14.20;;;6.78;;
73697;SDS011;62004;42.566;23.164;2022-08-21T00:03:36;10.88;;;6.32;;
73697;SDS011;62004;42.566;23.164;2022-08-21T00:06:02;9.52;;;6.85;;
73697;SDS011;62004;42.566;23.164;2022-08-21T00:08:28;130.98;;;10.85;;
73697;SDS011;62004;42.566;23.164;2022-08-21T00:10:53;12.45;;;6.20;;
73697;SDS011;62004;42.566;23.164;2022-08-21T00:13:19;8.50;;;6.53;;
73697;SDS011;62004;42.566;23.164;2022-08-21T00:15:45;8.80;;;6.55;;
73697;SDS011;62004;42.566;23.164;2022-08-21T00:18:11;8.93;;;6.25;;
73697;SDS011;62004;42.566;23.164;2022-08-21T00:20:37;9.98;;;7.18;;
73697;SDS011;62004;42.566;23.164;2022-08-21T00:23:06;8.05;;;5.72;;
73697;SDS011;62004;42.566;23.164;2022-08-21T00:25:32;6.22;;;4.55;;
73697;SDS011;62004;42.566;23.164;2022-08-21T00:27:58;7.55;;;3.67;;
73697;SDS011;62004;42.566;23.164;2022-08-21T00:30:24;7.03;;;4.32;;
73697;SDS011;62004;42.566;23.164;2022-08-21T00:32:51;7.55;;;4.53;;
73697;SDS011;62004;42.566;23.164;2022-08-21T00:35:18;7.85;;;5.18;;
73697;SDS011;62004;42.566;23.164;2022-08-21T00:40:14;9.23;;;4.97;;
73697;SDS011;62004;42.566;23.164;2022-08-21T00:42:43;8.20;;;5.57;;
73697;SDS011;62004;42.566;23.164;2022-08-21T00:45:09;14.10;;;7.38;;
73697;SDS011;62004;42.566;23.164;2022-08-21T00:47:35;8.85;;;5.57;;
73697;SDS011;62004;42.566;23.164;2022-08-21T00:50:00;6.53;;;4.57;;
73697;SDS011;62004;42.566;23.164;2022-08-21T00:52:27;7.93;;;5.00;;
73697;SDS011;62004;42.566;23.164;2022-08-21T00:54:55;7.50;;;4.30;;
73697;SDS011;62004;42.566;23.164;2022-08-21T00:57:24;7.32;;;3.75;;
73697;SDS011;62004;42.566;23.164;2022-08-21T00:59:52;8.93;;;6.22;;
73697;SDS011;62004;42.566;23.164;2022-08-21T01:02:19;8.35;;;4.75;;
73697;SDS011;62004;42.566;23.164;2022-08-21T01:04:45;8.23;;;4.65;;
73697;SDS011;62004;42.566;23.164;2022-08-21T01:07:11;6.38;;;3.88;;
73697;SDS011;62004;42.566;23.164;2022-08-21T01:09:37;7.72;;;4.20;;
73697;SDS011;62004;42.566;23.164;2022-08-21T01:12:05;6.38;;;3.70;;
73697;SDS011;62004;42.566;23.164;2022-08-21T01:14:32;6.72;;;3.80;;
73697;SDS011;62004;42.566;23.164;2022-08-21T01:16:58;6.43;;;3.67;;
73697;SDS011;62004;42.566;23.164;2022-08-21T01:19:24;5.60;;;3.50;;
73697;SDS011;62004;42.566;23.164;2022-08-21T01:21:50;6.45;;;3.50;;
73697;SDS011;62004;42.566;23.164;2022-08-21T01:24:16;6.85;;;3.72;;
73697;SDS011;62004;42.566;23.164;2022-08-21T01:26:43;8.00;;;3.47;;
73697;SDS011;62004;42.566;23.164;2022-08-21T01:31:56;4.38;;;3.33;;
73697;SDS011;62004;42.566;23.164;2022-08-21T01:34:22;6.78;;;3.30;;
73697;SDS011;62004;42.566;23.164;2022-08-21T01:36:48;5.85;;;3.25;;
73697;SDS011;62004;42.566;23.164;2022-08-21T01:39:14;4.43;;;3.38;;
73697;SDS011;62004;42.566;23.164;2022-08-21T01:41:40;6.80;;;3.20;;
73697;SDS011;62004;42.566;23.164;2022-08-21T01:44:05;8.93;;;3.70;;
73697;SDS011;62004;42.566;23.164;2022-08-21T01:46:31;11.07;;;3.63;;
73697;SDS011;62004;42.566;23.164;2022-08-21T01:48:56;5.75;;;3.60;;
73697;SDS011;62004;42.566;23.164;2022-08-21T01:51:22;9.95;;;3.42;;
73697;SDS011;62004;42.566;23.164;2022-08-21T01:53:48;8.48;;;3.38;;
73697;SDS011;62004;42.566;23.164;2022-08-21T01:56:15;5.43;;;2.85;;
73697;SDS011;62004;42.566;23.164;2022-08-21T01:58:42;4.75;;;3.25;;
73697;SDS011;62004;42.566;23.164;2022-08-21T02:01:09;7.95;;;3.30;;
73697;SDS011;62004;42.566;23.164;2022-08-21T02:03:35;5.10;;;2.90;;
73697;SDS011;62004;42.566;23.164;2022-08-21T02:06:00;5.20;;;2.95;;
73697;SDS011;62004;42.566;23.164;2022-08-21T02:08:27;5.38;;;3.08;;
73697;SDS011;62004;42.566;23.164;2022-08-21T02:10:53;11.27;;;2.60;;
73697;SDS011;62004;42.566;23.164;2022-08-21T02:13:19;6.03;;;2.47;;
73697;SDS011;62004;42.566;23.164;2022-08-21T02:15:44;6.20;;;2.42;;
73697;SDS011;62004;42.566;23.164;2022-08-21T02:18:10;4.82;;;3.08;;
73697;SDS011;62004;42.566;23.164;2022-08-21T02:20:37;7.00;;;2.78;;
73697;SDS011;62004;42.566;23.164;2022-08-21T02:23:04;7.32;;;2.60;;
73697;SDS011;62004;42.566;23.164;2022-08-21T02:25:31;4.28;;;3.25;;
73697;SDS011;62004;42.566;23.164;2022-08-21T02:27:57;7.03;;;3.20;;
73697;SDS011;62004;42.566;23.164;2022-08-21T02:30:26;8.95;;;3.00;;
73697;SDS011;62004;42.566;23.164;2022-08-21T02:32:54;6.70;;;3.05;;
73697;SDS011;62004;42.566;23.164;2022-08-21T02:35:20;8.43;;;2.83;;
73697;SDS011;62004;42.566;23.164;2022-08-21T02:37:55;5.75;;;2.45;;
73697;SDS011;62004;42.566;23.164;2022-08-21T02:40:28;5.32;;;2.53;;
73697;SDS011;62004;42.566;23.164;2022-08-21T02:42:56;4.82;;;1.75;;
73697;SDS011;62004;42.566;23.164;2022-08-21T02:45:22;5.50;;;2.47;;
73697;SDS011;62004;42.566;23.164;2022-08-21T02:47:51;6.50;;;2.85;;
73697;SDS011;62004;42.566;23.164;2022-08-21T02:50:20;4.85;;;2.08;;
73697;SDS011;62004;42.566;23.164;2022-08-21T02:52:47;6.32;;;2.58;;
73697;SDS011;62004;42.566;23.164;2022-08-21T02:55:13;5.30;;;2.40;;
73697;SDS011;62004;42.566;23.164;2022-08-21T02:57:38;5.45;;;2.60;;
73697;SDS011;62004;42.566;23.164;2022-08-21T03:00:04;3.83;;;2.47;;
73697;SDS011;62004;42.566;23.164;2022-08-21T03:02:30;8.30;;;2.63;;
73697;SDS011;62004;42.566;23.164;2022-08-21T03:04:56;9.27;;;2.28;;
73697;SDS011;62004;42.566;23.164;2022-08-21T03:07:21;7.20;;;2.80;;
73697;SDS011;62004;42.566;23.164;2022-08-21T03:09:48;8.43;;;4.53;;
73697;SDS011;62004;42.566;23.164;2022-08-21T03:12:13;9.65;;;3.78;;
73697;SDS011;62004;42.566;23.164;2022-08-21T03:14:39;5.00;;;3.45;;
73697;SDS011;62004;42.566;23.164;2022-08-21T03:17:05;4.97;;;2.90;;
73697;SDS011;62004;42.566;23.164;2022-08-21T03:19:32;6.05;;;3.25;;
73697;SDS011;62004;42.566;23.164;2022-08-21T03:21:57;5.80;;;3.25;;
73697;SDS011;62004;42.566;23.164;2022-08-21T03:24:23;4.85;;;3.95;;
73697;SDS011;62004;42.566;23.164;2022-08-21T03:26:48;9.73;;;5.45;;
73697;SDS011;62004;42.566;23.164;2022-08-21T03:29:14;7.35;;;4.38;;
73697;SDS011;62004;42.566;23.164;2022-08-21T03:31:39;7.13;;;4.18;;
73697;SDS011;62004;42.566;23.164;2022-08-21T03:34:05;4.45;;;3.72;;
73697;SDS011;62004;42.566;23.164;2022-08-21T03:36:30;7.40;;;4.28;;
73697;SDS011;62004;42.566;23.164;2022-08-21T03:38:56;7.05;;;4.43;;
73697;SDS011;62004;42.566;23.164;2022-08-21T03:41:21;5.90;;;3.88;;
73697;SDS011;62004;42.566;23.164;2022-08-21T03:43:47;8.68;;;4.22;;
73697;SDS011;62004;42.566;23.164;2022-08-21T03:46:12;9.40;;;4.82;;
73697;SDS011;62004;42.566;23.164;2022-08-21T03:48:38;6.50;;;3.72;;
73697;SDS011;62004;42.566;23.164;2022-08-21T03:51:04;9.60;;;4.82;;
73697;SDS011;62004;42.566;23.164;2022-08-21T03:53:31;5.90;;;3.67;;
73697;SDS011;62004;42.566;23.164;2022-08-21T03:55:57;7.45;;;3.60;;
73697;SDS011;62004;42.566;23.164;2022-08-21T03:58:24;11.95;;;7.47;;
73697;SDS011;62004;42.566;23.164;2022-08-21T04:00:51;18.55;;;11.52;;
73697;SDS011;62004;42.566;23.164;2022-08-21T04:03:19;7.78;;;5.22;;
73697;SDS011;62004;42.566;23.164;2022-08-21T04:05:44;11.35;;;6.50;;
73697;SDS011;62004;42.566;23.164;2022-08-21T04:08:11;5.78;;;3.50;;
73697;SDS011;62004;42.566;23.164;2022-08-21T04:10:37;9.00;;;4.22;;
73697;SDS011;62004;42.566;23.164;2022-08-21T04:13:04;9.23;;;4.47;;
73697;SDS011;62004;42.566;23.164;2022-08-21T04:15:30;9.77;;;3.75;;
73697;SDS011;62004;42.566;23.164;2022-08-21T04:17:56;7.43;;;4.35;;
73697;SDS011;62004;42.566;23.164;2022-08-21T04:20:22;12.27;;;6.90;;
73697;SDS011;62004;42.566;23.164;2022-08-21T04:22:48;7.82;;;5.07;;
73697;SDS011;62004;42.566;23.164;2022-08-21T04:25:15;7.82;;;4.63;;
73697;SDS011;62004;42.566;23.164;2022-08-21T04:27:41;6.35;;;3.60;;
73697;SDS011;62004;42.566;23.164;2022-08-21T04:30:07;6.72;;;3.67;;
73697;SDS011;62004;42.566;23.164;2022-08-21T04:32:37;7.68;;;4.38;;
73697;SDS011;62004;42.566;23.164;2022-08-21T04:35:04;6.68;;;3.88;;
73697;SDS011;62004;42.566;23.164;2022-08-21T04:37:31;6.97;;;4.00;;
73697;SDS011;62004;42.566;23.164;2022-08-21T04:39:57;6.90;;;3.75;;
73697;SDS011;62004;42.566;23.164;2022-08-21T04:42:26;10.88;;;3.65;;
73697;SDS011;62004;42.566;23.164;2022-08-21T04:47:18;5.55;;;4.63;;
73697;SDS011;62004;42.566;23.164;2022-08-21T04:49:44;6.05;;;3.45;;
73697;SDS011;62004;42.566;23.164;2022-08-21T04:52:10;9.68;;;3.75;;
73697;SDS011;62004;42.566;23.164;2022-08-21T04:54:36;5.50;;;3.47;;
73697;SDS011;62004;42.566;23.164;2022-08-21T04:57:04;5.38;;;3.53;;
73697;SDS011;62004;42.566;23.164;2022-08-21T04:59:43;6.78;;;3.95;;
73697;SDS011;62004;42.566;23.164;2022-08-21T05:02:11;5.57;;;3.28;;
73697;SDS011;62004;42.566;23.164;2022-08-21T05:04:40;6.45;;;2.85;;
73697;SDS011;62004;42.566;23.164;2022-08-21T05:07:10;5.30;;;4.40;;
73697;SDS011;62004;42.566;23.164;2022-08-21T05:09:38;9.05;;;4.43;;
73697;SDS011;62004;42.566;23.164;2022-08-21T05:12:03;82.60;;;6.40;;
73697;SDS011;62004;42.566;23.164;2022-08-21T05:14:29;7.45;;;3.83;;
73697;SDS011;62004;42.566;23.164;2022-08-21T05:16:55;6.57;;;4.32;;
73697;SDS011;62004;42.566;23.164;2022-08-21T05:19:20;6.57;;;2.92;;
73697;SDS011;62004;42.566;23.164;2022-08-21T05:21:46;3.63;;;2.72;;
73697;SDS011;62004;42.566;23.164;2022-08-21T05:24:15;5.43;;;2.70;;
73697;SDS011;62004;42.566;23.164;2022-08-21T05:26:41;4.75;;;2.45;;
73697;SDS011;62004;42.566;23.164;2022-08-21T05:29:07;6.63;;;2.63;;
73697;SDS011;62004;42.566;23.164;2022-08-21T05:31:33;4.35;;;2.83;;
73697;SDS011;62004;42.566;23.164;2022-08-21T05:33:59;9.55;;;3.50;;
73697;SDS011;62004;42.566;23.164;2022-08-21T05:36:24;6.63;;;3.03;;
73697;SDS011;62004;42.566;23.164;2022-08-21T05:38:50;5.60;;;2.97;;
73697;SDS011;62004;42.566;23.164;2022-08-21T05:41:15;8.02;;;3.40;;
73697;SDS011;62004;42.566;23.164;2022-08-21T05:43:41;5.90;;;3.10;;
73697;SDS011;62004;42.566;23.164;2022-08-21T05:46:07;6.00;;;3.00;;
73697;SDS011;62004;42.566;23.164;2022-08-21T05:48:33;4.57;;;3.15;;
73697;SDS011;62004;42.566;23.164;2022-08-21T05:51:03;8.88;;;3.00;;
73697;SDS011;62004;42.566;23.164;2022-08-21T05:53:39;7.97;;;2.72;;
73697;SDS011;62004;42.566;23.164;2022-08-21T05:56:10;4.75;;;2.55;;
73697;SDS011;62004;42.566;23.164;2022-08-21T05:58:43;3.95;;;2.15;;
73697;SDS011;62004;42.566;23.164;2022-08-21T06:01:09;7.55;;;3.10;;
73697;SDS011;62004;42.566;23.164;2022-08-21T06:03:35;7.05;;;2.97;;
73697;SDS011;62004;42.566;23.164;2022-08-21T06:06:03;4.03;;;2.67;;
73697;SDS011;62004;42.566;23.164;2022-08-21T06:08:28;5.47;;;2.95;;
73697;SDS011;62004;42.566;23.164;2022-08-21T06:10:55;7.60;;;3.30;;
73697;SDS011;62004;42.566;23.164;2022-08-21T06:13:21;6.45;;;3.03;;
73697;SDS011;62004;42.566;23.164;2022-08-21T06:15:48;7.78;;;3.25;;
73697;SDS011;62004;42.566;23.164;2022-08-21T06:18:14;5.30;;;3.10;;
73697;SDS011;62004;42.566;23.164;2022-08-21T06:20:40;6.85;;;3.17;;
73697;SDS011;62004;42.566;23.164;2022-08-21T06:23:06;6.03;;;2.88;;
73697;SDS011;62004;42.566;23.164;2022-08-21T06:25:32;6.22;;;2.53;;
73697;SDS011;62004;42.566;23.164;2022-08-21T06:28:02;4.97;;;3.17;;
73697;SDS011;62004;42.566;23.164;2022-08-21T06:30:29;3.70;;;2.97;;
73697;SDS011;62004;42.566;23.164;2022-08-21T06:32:54;4.30;;;2.88;;
73697;SDS011;62004;42.566;23.164;2022-08-21T06:35:19;5.88;;;4.68;;
73697;SDS011;62004;42.566;23.164;2022-08-21T06:37:45;7.32;;;6.63;;
73697;SDS011;62004;42.566;23.164;2022-08-21T06:40:11;9.57;;;5.00;;
73697;SDS011;62004;42.566;23.164;2022-08-21T06:42:37;6.95;;;5.07;;
73697;SDS011;62004;42.566;23.164;2022-08-21T06:45:03;5.68;;;5.15;;
73697;SDS011;62004;42.566;23.164;2022-08-21T06:47:29;5.70;;;5.20;;
73697;SDS011;62004;42.566;23.164;2022-08-21T06:49:54;6.78;;;4.72;;
73697;SDS011;62004;42.566;23.164;2022-08-21T06:52:20;7.32;;;5.45;;
73697;SDS011;62004;42.566;23.164;2022-08-21T06:54:45;6.53;;;4.18;;
73697;SDS011;62004;42.566;23.164;2022-08-21T06:57:11;8.55;;;5.03;;
73697;SDS011;62004;42.566;23.164;2022-08-21T06:59:36;6.32;;;5.72;;
73697;SDS011;62004;42.566;23.164;2022-08-21T07:02:03;6.82;;;6.20;;
73697;SDS011;62004;42.566;23.164;2022-08-21T07:04:28;5.80;;;4.82;;
73697;SDS011;62004;42.566;23.164;2022-08-21T07:06:54;5.80;;;5.20;;
73697;SDS011;62004;42.566;23.164;2022-08-21T07:09:19;8.70;;;5.63;;
73697;SDS011;62004;42.566;23.164;2022-08-21T07:11:47;7.82;;;4.93;;
73697;SDS011;62004;42.566;23.164;2022-08-21T07:14:16;5.53;;;3.53;;
73697;SDS011;62004;42.566;23.164;2022-08-21T07:16:41;6.78;;;3.72;;
73697;SDS011;62004;42.566;23.164;2022-08-21T07:19:07;8.98;;;4.95;;
73697;SDS011;62004;42.566;23.164;2022-08-21T07:21:32;9.65;;;7.78;;
73697;SDS011;62004;42.566;23.164;2022-08-21T07:23:57;5.85;;;4.93;;
73697;SDS011;62004;42.566;23.164;2022-08-21T07:26:23;5.75;;;4.55;;
73697;SDS011;62004;42.566;23.164;2022-08-21T07:28:49;7.30;;;5.35;;
73697;SDS011;62004;42.566;23.164;2022-08-21T07:31:16;9.82;;;5.95;;
73697;SDS011;62004;42.566;23.164;2022-08-21T07:33:43;7.22;;;5.75;;
73697;SDS011;62004;42.566;23.164;2022-08-21T07:36:09;7.63;;;6.25;;
73697;SDS011;62004;42.566;23.164;2022-08-21T07:38:36;8.50;;;5.93;;
73697;SDS011;62004;42.566;23.164;2022-08-21T07:41:02;7.00;;;5.55;;
73697;SDS011;62004;42.566;23.164;2022-08-21T07:43:32;6.13;;;5.53;;
73697;SDS011;62004;42.566;23.164;2022-08-21T07:45:57;11.52;;;6.22;;
73697;SDS011;62004;42.566;23.164;2022-08-21T07:48:23;6.95;;;6.25;;
73697;SDS011;62004;42.566;23.164;2022-08-21T07:50:49;8.52;;;6.30;;
73697;SDS011;62004;42.566;23.164;2022-08-21T07:53:15;7.35;;;5.50;;
73697;SDS011;62004;42.566;23.164;2022-08-21T07:55:40;10.40;;;5.65;;
73697;SDS011;62004;42.566;23.164;2022-08-21T07:58:06;5.85;;;4.78;;
73697;SDS011;62004;42.566;23.164;2022-08-21T08:00:32;7.35;;;5.40;;
73697;SDS011;62004;42.566;23.164;2022-08-21T08:02:58;7.20;;;5.72;;
73697;SDS011;62004;42.566;23.164;2022-08-21T08:05:25;6.00;;;5.20;;
73697;SDS011;62004;42.566;23.164;2022-08-21T08:07:52;7.95;;;5.07;;
73697;SDS011;62004;42.566;23.164;2022-08-21T08:10:18;9.98;;;5.78;;
73697;SDS011;62004;42.566;23.164;2022-08-21T08:12:44;7.72;;;5.85;;
73697;SDS011;62004;42.566;23.164;2022-08-21T08:15:11;7.70;;;4.95;;
73697;SDS011;62004;42.566;23.164;2022-08-21T08:17:39;5.38;;;4.53;;
73697;SDS011;62004;42.566;23.164;2022-08-21T08:20:08;8.30;;;4.45;;
73697;SDS011;62004;42.566;23.164;2022-08-21T08:22:35;5.30;;;4.80;;
73697;SDS011;62004;42.566;23.164;2022-08-21T08:25:02;6.78;;;5.05;;
73697;SDS011;62004;42.566;23.164;2022-08-21T08:27:29;6.95;;;4.88;;
73697;SDS011;62004;42.566;23.164;2022-08-21T08:29:55;7.68;;;4.93;;
73697;SDS011;62004;42.566;23.164;2022-08-21T08:32:20;6.30;;;4.38;;
73697;SDS011;62004;42.566;23.164;2022-08-21T08:34:46;8.35;;;6.10;;
73697;SDS011;62004;42.566;23.164;2022-08-21T08:37:16;6.22;;;4.90;;
73697;SDS011;62004;42.566;23.164;2022-08-21T08:39:43;7.72;;;5.22;;
73697;SDS011;62004;42.566;23.164;2022-08-21T08:42:09;12.82;;;5.03;;
73697;SDS011;62004;42.566;23.164;2022-08-21T08:44:40;7.57;;;5.22;;
73697;SDS011;62004;42.566;23.164;2022-08-21T08:47:06;7.85;;;5.88;;
73697;SDS011;62004;42.566;23.164;2022-08-21T08:49:35;9.82;;;5.97;;
73697;SDS011;62004;42.566;23.164;2022-08-21T08:52:05;7.20;;;5.72;;
73697;SDS011;62004;42.566;23.164;2022-08-21T08:55:02;8.27;;;4.80;;
73697;SDS011;62004;42.566;23.164;2022-08-21T08:57:38;7.63;;;5.25;;
73697;SDS011;62004;42.566;23.164;2022-08-21T09:00:08;7.75;;;5.47;;
73697;SDS011;62004;42.566;23.164;2022-08-21T09:02:38;8.50;;;6.00;;
73697;SDS011;62004;42.566;23.164;2022-08-21T09:05:04;6.95;;;5.43;;
73697;SDS011;62004;42.566;23.164;2022-08-21T09:07:35;8.77;;;6.60;;
73697;SDS011;62004;42.566;23.164;2022-08-21T09:10:09;8.15;;;6.32;;
73697;SDS011;62004;42.566;23.164;2022-08-21T09:18:18;6.40;;;5.63;;
73697;SDS011;62004;42.566;23.164;2022-08-21T09:21:08;10.23;;;6.63;;
73697;SDS011;62004;42.566;23.164;2022-08-21T09:26:15;9.50;;;5.75;;
73697;SDS011;62004;42.566;23.164;2022-08-21T09:28:43;48.80;;;8.48;;
73697;SDS011;62004;42.566;23.164;2022-08-21T09:31:16;9.70;;;5.93;;
73697;SDS011;62004;42.566;23.164;2022-08-21T09:33:47;9.75;;;6.65;;
73697;SDS011;62004;42.566;23.164;2022-08-21T09:36:12;7.82;;;5.30;;
73697;SDS011;62004;42.566;23.164;2022-08-21T09:38:51;12.90;;;8.25;;
73697;SDS011;62004;42.566;23.164;2022-08-21T09:41:25;10.80;;;7.10;;
73697;SDS011;62004;42.566;23.164;2022-08-21T09:43:55;8.55;;;5.55;;
73697;SDS011;62004;42.566;23.164;2022-08-21T09:46:22;9.65;;;6.00;;
73697;SDS011;62004;42.566;23.164;2022-08-21T09:48:50;8.32;;;5.72;;
73697;SDS011;62004;42.566;23.164;2022-08-21T09:51:22;8.38;;;5.60;;
73697;SDS011;62004;42.566;23.164;2022-08-21T09:54:32;8.48;;;5.47;;
73697;SDS011;62004;42.566;23.164;2022-08-21T09:56:53;8.52;;;5.90;;
73697;SDS011;62004;42.566;23.164;2022-08-21T09:59:40;10.75;;;6.90;;
73697;SDS011;62004;42.566;23.164;2022-08-21T10:04:50;8.63;;;5.82;;
73697;SDS011;62004;42.566;23.164;2022-08-21T10:07:39;9.82;;;6.13;;
73697;SDS011;62004;42.566;23.164;2022-08-21T10:10:06;9.75;;;5.65;;
73697;SDS011;62004;42.566;23.164;2022-08-21T10:13:16;9.00;;;5.32;;
73697;SDS011;62004;42.566;23.164;2022-08-21T10:27:57;6.10;;;4.97;;
73697;SDS011;62004;42.566;23.164;2022-08-21T10:35:24;9.23;;;6.05;;
73697;SDS011;62004;42.566;23.164;2022-08-21T10:44:04;8.00;;;5.75;;
73697;SDS011;62004;42.566;23.164;2022-08-21T10:52:06;8.65;;;4.82;;
73697;SDS011;62004;42.566;23.164;2022-08-21T10:55:06;8.68;;;6.22;;
73697;SDS011;62004;42.566;23.164;2022-08-21T10:57:41;10.32;;;5.72;;
73697;SDS011;62004;42.566;23.164;2022-08-21T11:00:12;7.68;;;5.07;;
73697;SDS011;62004;42.566;23.164;2022-08-21T11:02:41;8.35;;;4.93;;
73697;SDS011;62004;42.566;23.164;2022-08-21T11:07:51;13.45;;;4.65;;
73697;SDS011;62004;42.566;23.164;2022-08-21T11:10:23;10.45;;;5.75;;
73697;SDS011;62004;42.566;23.164;2022-08-21T11:13:01;8.20;;;4.18;;
73697;SDS011;62004;42.566;23.164;2022-08-21T11:18:00;7.53;;;5.00;;
73697;SDS011;62004;42.566;23.164;2022-08-21T11:23:08;7.60;;;5.40;;
73697;SDS011;62004;42.566;23.164;2022-08-21T11:26:17;8.70;;;5.43;;
73697;SDS011;62004;42.566;23.164;2022-08-21T11:28:55;7.05;;;5.10;;
73697;SDS011;62004;42.566;23.164;2022-08-21T11:31:47;4.88;;;3.92;;
73697;SDS011;62004;42.566;23.164;2022-08-21T11:37:13;7.85;;;4.97;;
73697;SDS011;62004;42.566;23.164;2022-08-21T11:42:45;5.50;;;4.30;;
73697;SDS011;62004;42.566;23.164;2022-08-21T11:45:37;6.10;;;3.95;;
73697;SDS011;62004;42.566;23.164;2022-08-21T11:48:15;7.32;;;4.68;;
73697;SDS011;62004;42.566;23.164;2022-08-21T11:51:01;6.82;;;4.07;;
73697;SDS011;62004;42.566;23.164;2022-08-21T11:53:33;6.78;;;4.68;;
73697;SDS011;62004;42.566;23.164;2022-08-21T11:56:11;4.97;;;4.40;;
73697;SDS011;62004;42.566;23.164;2022-08-21T11:59:03;9.75;;;5.70;;
73697;SDS011;62004;42.566;23.164;2022-08-21T12:01:33;7.30;;;4.70;;
73697;SDS011;62004;42.566;23.164;2022-08-21T12:04:48;5.75;;;4.32;;
73697;SDS011;62004;42.566;23.164;2022-08-21T12:06:56;7.35;;;4.70;;
73697;SDS011;62004;42.566;23.164;2022-08-21T12:15:24;6.20;;;4.82;;
73697;SDS011;62004;42.566;23.164;2022-08-21T12:17:56;9.27;;;6.00;;
73697;SDS011;62004;42.566;23.164;2022-08-21T12:20:57;6.47;;;5.80;;
73697;SDS011;62004;42.566;23.164;2022-08-21T12:23:43;7.45;;;5.88;;
73697;SDS011;62004;42.566;23.164;2022-08-21T12:28:42;9.43;;;5.90;;
73697;SDS011;62004;42.566;23.164;2022-08-21T12:31:20;9.95;;;7.80;;
73697;SDS011;62004;42.566;23.164;2022-08-21T12:33:51;11.32;;;7.40;;
73697;SDS011;62004;42.566;23.164;2022-08-21T12:36:21;7.72;;;7.03;;
73697;SDS011;62004;42.566;23.164;2022-08-21T12:38:55;9.85;;;6.93;;
73697;SDS011;62004;42.566;23.164;2022-08-21T12:41:27;8.90;;;6.50;;
73697;SDS011;62004;42.566;23.164;2022-08-21T12:43:57;8.90;;;5.63;;
73697;SDS011;62004;42.566;23.164;2022-08-21T12:46:36;11.13;;;7.15;;
73697;SDS011;62004;42.566;23.164;2022-08-21T12:49:19;8.95;;;7.57;;
73697;SDS011;62004;42.566;23.164;2022-08-21T12:51:57;9.07;;;7.93;;
73697;SDS011;62004;42.566;23.164;2022-08-21T12:54:44;7.30;;;5.88;;
73697;SDS011;62004;42.566;23.164;2022-08-21T12:57:23;11.77;;;6.95;;
73697;SDS011;62004;42.566;23.164;2022-08-21T12:59:58;10.02;;;6.00;;
73697;SDS011;62004;42.566;23.164;2022-08-21T13:02:29;9.40;;;7.35;;
73697;SDS011;62004;42.566;23.164;2022-08-21T13:04:56;7.90;;;6.53;;
73697;SDS011;62004;42.566;23.164;2022-08-21T13:07:27;7.35;;;6.55;;
73697;SDS011;62004;42.566;23.164;2022-08-21T13:09:56;7.05;;;5.80;;
73697;SDS011;62004;42.566;23.164;2022-08-21T13:12:26;8.75;;;4.72;;
73697;SDS011;62004;42.566;23.164;2022-08-21T13:14:54;6.60;;;5.90;;
73697;SDS011;62004;42.566;23.164;2022-08-21T13:17:22;9.23;;;6.30;;
73697;SDS011;62004;42.566;23.164;2022-08-21T13:19:56;7.72;;;6.20;;
73697;SDS011;62004;42.566;23.164;2022-08-21T13:22:25;8.20;;;6.45;;
73697;SDS011;62004;42.566;23.164;2022-08-21T13:24:51;6.93;;;5.70;;
73697;SDS011;62004;42.566;23.164;2022-08-21T13:27:17;9.57;;;6.20;;
73697;SDS011;62004;42.566;23.164;2022-08-21T13:29:49;6.82;;;6.10;;
73697;SDS011;62004;42.566;23.164;2022-08-21T13:32:26;10.63;;;6.35;;
73697;SDS011;62004;42.566;23.164;2022-08-21T13:34:52;9.45;;;6.35;;
73697;SDS011;62004;42.566;23.164;2022-08-21T13:37:18;9.27;;;5.75;;
73697;SDS011;62004;42.566;23.164;2022-08-21T13:39:48;8.05;;;5.63;;
73697;SDS011;62004;42.566;23.164;2022-08-21T13:42:15;8.73;;;6.68;;
73697;SDS011;62004;42.566;23.164;2022-08-21T13:44:42;5.63;;;4.85;;
73697;SDS011;62004;42.566;23.164;2022-08-21T13:47:09;7.82;;;5.18;;
73697;SDS011;62004;42.566;23.164;2022-08-21T13:49:47;9.45;;;6.53;;
73697;SDS011;62004;42.566;23.164;2022-08-21T13:54:44;7.30;;;5.93;;
73697;SDS011;62004;42.566;23.164;2022-08-21T13:57:25;8.98;;;6.75;;
73697;SDS011;62004;42.566;23.164;2022-08-21T13:59:51;8.52;;;6.00;;
73697;SDS011;62004;42.566;23.164;2022-08-21T14:02:23;8.75;;;6.40;;
73697;SDS011;62004;42.566;23.164;2022-08-21T14:04:56;9.30;;;6.35;;
73697;SDS011;62004;42.566;23.164;2022-08-21T14:07:36;9.13;;;6.30;;
73697;SDS011;62004;42.566;23.164;2022-08-21T14:10:11;9.52;;;5.70;;
73697;SDS011;62004;42.566;23.164;2022-08-21T14:12:42;9.50;;;6.35;;
73697;SDS011;62004;42.566;23.164;2022-08-21T14:15:09;7.47;;;6.60;;
73697;SDS011;62004;42.566;23.164;2022-08-21T14:17:39;10.45;;;7.05;;
73697;SDS011;62004;42.566;23.164;2022-08-21T14:20:06;8.02;;;5.40;;
73697;SDS011;62004;42.566;23.164;2022-08-21T14:27:34;6.95;;;6.05;;
73697;SDS011;62004;42.566;23.164;2022-08-21T14:30:13;9.98;;;6.95;;
73697;SDS011;62004;42.566;23.164;2022-08-21T14:35:10;7.47;;;6.40;;
73697;SDS011;62004;42.566;23.164;2022-08-21T14:37:36;10.23;;;6.75;;
73697;SDS011;62004;42.566;23.164;2022-08-21T14:40:02;9.65;;;7.32;;
73697;SDS011;62004;42.566;23.164;2022-08-21T14:42:28;8.55;;;6.88;;
73697;SDS011;62004;42.566;23.164;2022-08-21T14:44:55;10.55;;;7.03;;
73697;SDS011;62004;42.566;23.164;2022-08-21T14:47:23;11.15;;;8.65;;
73697;SDS011;62004;42.566;23.164;2022-08-21T14:49:49;11.35;;;7.72;;
73697;SDS011;62004;42.566;23.164;2022-08-21T14:52:15;11.75;;;8.35;;
73697;SDS011;62004;42.566;23.164;2022-08-21T14:54:40;9.63;;;8.02;;
73697;SDS011;62004;42.566;23.164;2022-08-21T14:57:07;11.20;;;6.72;;
73697;SDS011;62004;42.566;23.164;2022-08-21T14:59:34;9.52;;;8.63;;
73697;SDS011;62004;42.566;23.164;2022-08-21T15:02:00;11.68;;;8.40;;
73697;SDS011;62004;42.566;23.164;2022-08-21T15:04:28;9.65;;;8.65;;
73697;SDS011;62004;42.566;23.164;2022-08-21T15:06:54;9.80;;;8.10;;
73697;SDS011;62004;42.566;23.164;2022-08-21T15:09:19;10.77;;;8.82;;
73697;SDS011;62004;42.566;23.164;2022-08-21T15:11:45;9.30;;;8.07;;
73697;SDS011;62004;42.566;23.164;2022-08-21T15:14:11;10.05;;;8.05;;
73697;SDS011;62004;42.566;23.164;2022-08-21T15:16:49;13.40;;;8.98;;
73697;SDS011;62004;42.566;23.164;2022-08-21T15:19:15;10.23;;;9.23;;
73697;SDS011;62004;42.566;23.164;2022-08-21T15:21:41;15.80;;;9.13;;
73697;SDS011;62004;42.566;23.164;2022-08-21T15:24:07;10.10;;;8.50;;
73697;SDS011;62004;42.566;23.164;2022-08-21T15:26:32;12.43;;;8.45;;
73697;SDS011;62004;42.566;23.164;2022-08-21T15:28:59;10.13;;;8.25;;
73697;SDS011;62004;42.566;23.164;2022-08-21T15:31:24;14.25;;;8.68;;
73697;SDS011;62004;42.566;23.164;2022-08-21T15:33:50;13.48;;;9.30;;
73697;SDS011;62004;42.566;23.164;2022-08-21T15:36:16;11.02;;;7.95;;
73697;SDS011;62004;42.566;23.164;2022-08-21T15:38:44;12.68;;;8.55;;
73697;SDS011;62004;42.566;23.164;2022-08-21T15:41:09;11.32;;;8.50;;
73697;SDS011;62004;42.566;23.164;2022-08-21T15:43:39;13.05;;;8.40;;
73697;SDS011;62004;42.566;23.164;2022-08-21T15:46:07;11.95;;;8.20;;
73697;SDS011;62004;42.566;23.164;2022-08-21T15:48:35;10.88;;;8.35;;
73697;SDS011;62004;42.566;23.164;2022-08-21T15:51:00;11.57;;;8.30;;
73697;SDS011;62004;42.566;23.164;2022-08-21T15:53:26;10.38;;;8.75;;
73697;SDS011;62004;42.566;23.164;2022-08-21T15:55:52;10.60;;;8.55;;
73697;SDS011;62004;42.566;23.164;2022-08-21T15:58:18;11.00;;;8.18;;
73697;SDS011;62004;42.566;23.164;2022-08-21T16:00:45;11.23;;;8.18;;
73697;SDS011;62004;42.566;23.164;2022-08-21T16:03:12;12.75;;;8.90;;